Time;durP1;ratioP1;P1;durP2;ratioP2;P2;SDS_P1;SDS_P2;PMS_P1;PMS_P2;Temp;Humidity;BMP_temperature;BMP_pressure;BME280_temperature;BME280_humidity;BME280_pressure;Samples;Min_cycle;Max_cycle;Signal;HPM_P1;HPM_P2
2023/07/31 00:01:33;;;;;;;4.20;0.60;;;;;;;16.74;91.05;99935.40;110511;1273;22201;-56
2023/07/31 00:04:04;;;;;;;7.80;0.90;;;;;;;16.73;91.11;99938.81;110505;1273;23078;-55
2023/07/31 00:06:35;;;;;;;6.30;0.90;;;;;;;16.72;90.94;99938.70;110505;1267;22172;-59
2023/07/31 00:09:05;;;;;;;5.10;0.80;;;;;;;16.72;90.95;99937.16;110480;1273;22475;-56
2023/07/31 00:11:36;;;;;;;3.30;0.80;;;;;;;16.74;91.07;99937.66;110482;1273;22837;-56
2023/07/31 00:14:07;;;;;;;7.60;0.90;;;;;;;16.74;90.95;99938.73;110524;1273;22226;-56
2023/07/31 00:16:38;;;;;;;5.00;1.00;;;;;;;16.75;90.89;99940.94;110502;1273;22203;-54
2023/07/31 00:19:09;;;;;;;3.90;0.80;;;;;;;16.74;90.79;99941.91;110506;1273;22212;-57
2023/07/31 00:21:39;;;;;;;5.60;0.90;;;;;;;16.73;90.75;99938.75;110479;1273;22156;-57
2023/07/31 00:24:10;;;;;;;4.50;0.90;;;;;;;16.72;90.74;99939.16;110478;1273;22208;-56
2023/07/31 00:26:41;;;;;;;5.50;1.00;;;;;;;16.72;90.80;99946.23;110489;1273;22366;-55
2023/07/31 00:29:12;;;;;;;5.50;1.00;;;;;;;16.74;90.85;99942.98;110443;1273;22963;-56
2023/07/31 00:31:43;;;;;;;8.20;1.00;;;;;;;16.73;90.79;99943.36;110512;1273;22489;-58
2023/07/31 00:34:14;;;;;;;6.20;1.00;;;;;;;16.74;90.78;99948.48;110485;1273;23384;-53
2023/07/31 00:36:44;;;;;;;10.00;1.30;;;;;;;16.74;90.70;99949.09;110483;1273;22431;-56
2023/07/31 00:39:15;;;;;;;5.60;1.40;;;;;;;16.74;90.64;99947.81;110464;1266;22305;-56
2023/07/31 00:41:46;;;;;;;9.30;1.30;;;;;;;16.74;90.79;99950.36;110517;1273;23075;-57
2023/07/31 00:44:17;;;;;;;6.60;1.20;;;;;;;16.75;90.81;99951.39;110574;1273;22250;-56
2023/07/31 00:46:47;;;;;;;6.90;1.20;;;;;;;16.76;90.87;99949.68;110494;1273;22372;-57
2023/07/31 00:49:18;;;;;;;11.90;1.30;;;;;;;16.76;90.92;99949.79;110487;1273;22428;-55
2023/07/31 00:51:49;;;;;;;3.40;1.10;;;;;;;16.76;90.88;99953.55;110506;1273;22185;-59
2023/07/31 00:54:20;;;;;;;5.10;0.90;;;;;;;16.77;91.00;99953.64;110477;1273;22185;-56
2023/07/31 00:56:54;;;;;;;4.90;1.00;;;;;;;16.75;90.83;99948.46;110488;1273;22217;-57
2023/07/31 00:59:25;;;;;;;8.50;1.10;;;;;;;16.74;90.73;99947.25;110490;1270;22253;-56
2023/07/31 01:01:56;;;;;;;5.10;1.00;;;;;;;16.73;90.52;99943.93;110492;1273;22199;-57
2023/07/31 01:04:27;;;;;;;4.80;1.00;;;;;;;16.72;90.37;99942.81;110503;1270;22877;-56
2023/07/31 01:07:02;;;;;;;4.90;0.90;;;;;;;16.70;90.28;99936.80;110493;1273;22198;-57
2023/07/31 01:09:41;;;;;;;6.30;0.90;;;;;;;16.68;90.24;99933.79;110459;1273;22225;-56
2023/07/31 01:12:16;;;;;;;8.80;1.20;;;;;;;16.67;90.01;99935.44;110489;1268;22374;-58
2023/07/31 01:15:04;;;;;;;5.10;0.80;;;;;;;16.66;90.09;99939.08;110504;1273;23194;-56
2023/07/31 01:17:35;;;;;;;7.80;1.00;;;;;;;16.63;90.05;99938.65;110486;1273;22207;-56
2023/07/31 01:20:11;;;;;;;7.10;0.90;;;;;;;16.63;90.05;99941.12;110494;1273;22439;-56
2023/07/31 01:23:00;;;;;;;6.80;1.10;;;;;;;16.60;89.95;99938.17;110490;1273;22506;-56
2023/07/31 01:25:48;;;;;;;3.50;0.70;;;;;;;16.58;89.53;99933.95;110479;1273;23008;-57
2023/07/31 01:28:26;;;;;;;4.50;0.90;;;;;;;16.56;89.37;99929.20;110520;1273;22248;-57
2023/07/31 01:30:59;;;;;;;4.70;1.00;;;;;;;16.55;89.37;99931.88;110476;1273;22244;-57
2023/07/31 01:33:31;;;;;;;8.10;1.00;;;;;;;16.54;89.44;99930.90;110475;1273;22611;-57
2023/07/31 01:36:01;;;;;;;9.40;1.00;;;;;;;16.53;89.50;99935.54;110419;1273;22197;-54
2023/07/31 01:38:32;;;;;;;9.90;1.00;;;;;;;16.54;89.32;99940.80;110451;1273;22865;-56
2023/07/31 01:41:03;;;;;;;11.20;1.70;;;;;;;16.53;89.12;99941.48;110509;1273;22197;-56
2023/07/31 01:43:34;;;;;;;7.10;0.80;;;;;;;16.52;89.00;99943.39;110522;1273;22946;-57
2023/07/31 01:46:05;;;;;;;4.10;0.90;;;;;;;16.52;89.05;99944.25;110504;1273;22165;-57
2023/07/31 01:48:36;;;;;;;5.90;1.00;;;;;;;16.52;89.03;99946.20;110497;1273;22227;-60
2023/07/31 01:51:07;;;;;;;6.20;0.90;;;;;;;16.51;89.03;99943.90;110490;1273;22352;-58
2023/07/31 01:53:38;;;;;;;5.90;1.30;;;;;;;16.51;88.88;99944.41;110511;1273;22140;-56
2023/07/31 01:56:09;;;;;;;9.80;1.10;;;;;;;16.50;88.77;99942.17;110515;1273;22164;-57
2023/07/31 01:58:39;;;;;;;7.70;1.30;;;;;;;16.49;88.75;99940.98;110505;1273;22172;-54
2023/07/31 02:01:10;;;;;;;9.60;1.10;;;;;;;16.49;88.71;99941.75;110498;1273;22147;-57
2023/07/31 02:03:42;;;;;;;10.30;1.10;;;;;;;16.48;88.65;99939.55;110502;1273;22419;-56
2023/07/31 02:06:12;;;;;;;7.10;1.40;;;;;;;16.47;88.51;99943.19;110512;1273;22198;-56
2023/07/31 02:08:43;;;;;;;9.90;1.00;;;;;;;16.47;88.35;99946.58;110483;1273;22365;-56
2023/07/31 02:11:14;;;;;;;8.80;1.30;;;;;;;16.46;88.47;99943.86;110519;1273;22198;-56
2023/07/31 02:13:45;;;;;;;7.10;1.00;;;;;;;16.45;88.33;99937.47;110518;1273;22385;-57
2023/07/31 02:16:16;;;;;;;8.70;1.10;;;;;;;16.45;88.33;99936.30;110505;1273;22272;-56
2023/07/31 02:18:46;;;;;;;11.00;1.10;;;;;;;16.45;88.24;99930.77;110480;1273;22313;-57
2023/07/31 02:21:17;;;;;;;8.40;0.90;;;;;;;16.46;87.90;99931.52;110495;1273;22650;-55
2023/07/31 02:23:48;;;;;;;12.20;1.10;;;;;;;16.46;87.86;99932.49;110535;1273;22403;-59
2023/07/31 02:26:19;;;;;;;13.00;1.30;;;;;;;16.46;87.91;99936.34;110522;1273;22381;-58
2023/07/31 02:28:49;;;;;;;8.90;1.10;;;;;;;16.47;87.74;99935.10;110458;1273;22361;-59
2023/07/31 02:31:20;;;;;;;6.40;1.10;;;;;;;16.48;87.64;99940.63;110482;1273;22985;-57
2023/07/31 02:33:51;;;;;;;7.50;1.00;;;;;;;16.47;87.63;99944.37;110221;1273;22235;-57
2023/07/31 02:36:22;;;;;;;5.70;0.90;;;;;;;16.48;87.89;99942.41;110473;1273;22268;-57
2023/07/31 02:38:53;;;;;;;9.00;1.20;;;;;;;16.48;87.75;99941.25;110487;1273;22240;-56
2023/07/31 02:41:24;;;;;;;8.70;1.40;;;;;;;16.46;87.62;99939.00;110519;1273;22934;-56
2023/07/31 02:43:55;;;;;;;7.20;1.00;;;;;;;16.44;87.46;99938.66;110483;1273;22276;-57
2023/07/31 02:46:26;;;;;;;10.90;1.10;;;;;;;16.44;87.49;99937.02;110517;1268;22683;-57
2023/07/31 02:48:57;;;;;;;6.70;1.10;;;;;;;16.44;87.39;99937.89;110488;1273;22178;-57
2023/07/31 02:51:28;;;;;;;6.30;0.90;;;;;;;16.44;87.44;99937.89;110480;1273;22281;-57
2023/07/31 02:53:59;;;;;;;6.40;1.00;;;;;;;16.43;87.39;99944.98;110498;1273;22202;-56
2023/07/31 02:56:29;;;;;;;7.80;1.00;;;;;;;16.42;87.25;99943.91;110515;1271;22298;-55
2023/07/31 02:59:00;;;;;;;7.60;1.10;;;;;;;16.40;87.28;99942.70;110491;1273;22399;-53
2023/07/31 03:01:31;;;;;;;7.80;0.90;;;;;;;16.40;87.45;99943.00;110519;1273;22174;-57
2023/07/31 03:04:02;;;;;;;7.50;1.30;;;;;;;16.41;87.39;99950.27;110521;1273;22223;-53
2023/07/31 03:06:33;;;;;;;4.80;1.00;;;;;;;16.42;87.38;99946.20;110527;1273;22227;-57
2023/07/31 03:09:04;;;;;;;9.10;0.90;;;;;;;16.42;87.27;99948.89;110459;1270;23340;-57
2023/07/31 03:11:34;;;;;;;10.70;0.90;;;;;;;16.42;87.20;99948.92;110528;1273;22168;-55
2023/07/31 03:14:05;;;;;;;5.20;0.70;;;;;;;16.41;87.21;99951.61;110451;1273;22184;-56
2023/07/31 03:16:36;;;;;;;9.80;1.00;;;;;;;16.39;87.07;99948.65;110477;1273;22171;-58
2023/07/31 03:19:07;;;;;;;5.30;1.00;;;;;;;16.38;86.99;99948.81;110519;1273;22203;-57
2023/07/31 03:21:37;;;;;;;5.10;1.00;;;;;;;16.39;86.88;99945.23;110514;1273;23317;-58
2023/07/31 03:24:08;;;;;;;9.20;0.90;;;;;;;16.39;86.87;99947.44;110495;1273;22182;-56
2023/07/31 03:26:41;;;;;;;8.50;1.20;;;;;;;16.39;86.77;99949.62;110557;1273;22348;-54
2023/07/31 03:29:12;;;;;;;9.50;1.10;;;;;;;16.40;86.80;99949.67;110477;1273;23517;-57
2023/07/31 03:31:42;;;;;;;9.60;1.00;;;;;;;16.40;86.86;99955.61;110475;1273;23284;-55
2023/07/31 03:34:13;;;;;;;13.10;1.10;;;;;;;16.38;86.41;99955.48;110504;1273;23032;-55
2023/07/31 03:36:44;;;;;;;7.50;1.20;;;;;;;16.33;86.15;99952.29;110504;1273;22432;-59
2023/07/31 03:39:15;;;;;;;6.40;0.90;;;;;;;16.31;86.13;99951.19;110516;1273;22165;-56
2023/07/31 03:41:45;;;;;;;10.40;1.10;;;;;;;16.27;86.09;99952.23;110510;1265;22329;-56
2023/07/31 03:44:16;;;;;;;3.20;0.90;;;;;;;16.26;86.33;99950.16;110464;1273;22169;-55
2023/07/31 03:46:47;;;;;;;7.10;0.80;;;;;;;16.26;86.31;99947.44;110511;1273;22318;-55
2023/07/31 03:49:18;;;;;;;13.10;1.40;;;;;;;16.24;86.27;99945.30;110514;1273;22213;-58
2023/07/31 03:51:49;;;;;;;6.80;1.00;;;;;;;16.24;86.12;99948.08;110535;1273;22382;-56
2023/07/31 03:54:20;;;;;;;9.50;1.00;;;;;;;16.23;86.03;99950.02;110487;1258;22328;-55
2023/07/31 03:56:50;;;;;;;3.90;0.70;;;;;;;16.21;86.00;99949.98;110497;1273;22212;-57
2023/07/31 03:59:22;;;;;;;11.70;1.30;;;;;;;16.21;86.24;99949.42;110488;1273;22131;-53
2023/07/31 04:01:52;;;;;;;6.40;1.00;;;;;;;16.21;86.18;99946.87;110511;1272;22423;-58
2023/07/31 04:04:23;;;;;;;10.10;1.10;;;;;;;16.19;86.09;99946.27;110509;1273;22176;-55
2023/07/31 04:06:54;;;;;;;10.10;1.00;;;;;;;16.19;86.20;99944.73;110523;1273;22307;-57
2023/07/31 04:09:25;;;;;;;5.80;0.90;;;;;;;16.19;86.27;99944.16;110503;1273;22185;-57
2023/07/31 04:11:56;;;;;;;10.60;1.20;;;;;;;16.18;86.35;99942.41;110468;1273;22184;-57
2023/07/31 04:14:26;;;;;;;6.30;0.90;;;;;;;16.17;86.21;99941.86;110507;1273;22267;-57
2023/07/31 04:16:57;;;;;;;8.10;0.80;;;;;;;16.17;86.38;99945.62;110502;1273;22389;-55
2023/07/31 04:19:28;;;;;;;8.70;1.20;;;;;;;16.16;86.25;99946.90;110503;1273;22318;-56
2023/07/31 04:21:59;;;;;;;7.20;1.10;;;;;;;16.16;86.44;99946.48;110524;1273;23268;-54
2023/07/31 04:24:29;;;;;;;9.10;1.60;;;;;;;16.16;86.43;99946.23;110541;1273;22234;-56
2023/07/31 04:27:01;;;;;;;8.80;0.90;;;;;;;16.17;86.48;99942.54;110509;1267;22355;-60
2023/07/31 04:29:31;;;;;;;8.00;0.90;;;;;;;16.17;86.43;99942.84;110397;1268;22278;-61
2023/07/31 04:32:02;;;;;;;11.90;1.00;;;;;;;16.19;86.50;99939.61;110429;1267;22365;-61
2023/07/31 04:34:33;;;;;;;7.50;0.90;;;;;;;16.20;86.67;99943.03;110466;1273;22164;-60
2023/07/31 04:37:04;;;;;;;4.40;1.00;;;;;;;16.22;86.58;99945.48;110502;1268;22209;-61
2023/07/31 04:39:35;;;;;;;8.30;1.60;;;;;;;16.23;86.47;99950.84;110487;1273;22150;-61
2023/07/31 04:42:06;;;;;;;13.60;1.70;;;;;;;16.26;86.81;99950.41;110517;1273;22185;-55
2023/07/31 04:44:37;;;;;;;6.40;1.20;;;;;;;16.29;86.72;99951.80;110482;1267;22969;-58
2023/07/31 04:47:08;;;;;;;7.10;1.00;;;;;;;16.32;86.90;99949.52;110450;1266;23202;-54
2023/07/31 04:49:39;;;;;;;7.50;0.70;;;;;;;16.37;86.72;99948.56;110440;1268;22467;-58
2023/07/31 04:52:10;;;;;;;7.80;1.00;;;;;;;16.41;86.63;99949.10;110502;1268;23482;-57
2023/07/31 04:54:40;;;;;;;9.30;1.00;;;;;;;16.44;86.68;99949.36;110433;1266;22152;-57
2023/07/31 04:57:11;;;;;;;8.60;1.30;;;;;;;16.48;86.85;99945.75;110491;1269;22274;-55
2023/07/31 04:59:42;;;;;;;12.50;1.30;;;;;;;16.50;86.84;99941.81;110529;1273;22217;-57
2023/07/31 05:02:14;;;;;;;9.80;1.10;;;;;;;16.53;86.65;99939.68;110533;1273;22143;-56
2023/07/31 05:04:45;;;;;;;5.10;1.10;;;;;;;16.57;86.87;99943.28;110512;1263;22313;-56
2023/07/31 05:07:17;;;;;;;11.50;1.10;;;;;;;16.60;87.07;99942.42;110572;1273;22451;-56
2023/07/31 05:09:48;;;;;;;9.60;0.90;;;;;;;16.65;87.03;99944.84;110490;1273;22403;-53
2023/07/31 05:12:18;;;;;;;7.50;1.00;;;;;;;16.69;87.03;99945.97;110514;1267;22202;-56
2023/07/31 05:14:49;;;;;;;8.30;1.20;;;;;;;16.74;86.91;99949.55;110578;1272;22901;-56
2023/07/31 05:17:20;;;;;;;8.50;1.10;;;;;;;16.79;86.95;99951.77;110629;1269;22921;-56
2023/07/31 05:19:50;;;;;;;7.20;1.10;;;;;;;16.83;86.83;99950.02;110541;1272;23142;-57
2023/07/31 05:22:21;;;;;;;10.00;1.30;;;;;;;16.89;86.80;99956.20;110543;1265;22208;-56
2023/07/31 05:24:53;;;;;;;9.50;1.50;;;;;;;16.97;86.35;99957.10;110561;1268;22242;-57
2023/07/31 05:27:24;;;;;;;8.50;1.20;;;;;;;17.03;86.30;99958.63;110564;1254;22351;-56
2023/07/31 05:29:55;;;;;;;9.10;1.40;;;;;;;17.10;86.21;99958.90;110538;1273;22278;-57
2023/07/31 05:32:26;;;;;;;9.00;1.40;;;;;;;17.18;85.99;99955.98;110499;1271;22188;-55
2023/07/31 05:34:57;;;;;;;6.10;1.20;;;;;;;17.25;85.82;99961.89;110584;1272;22503;-55
2023/07/31 05:37:28;;;;;;;6.90;1.30;;;;;;;17.32;85.60;99957.34;110485;1268;22169;-55
2023/07/31 05:39:59;;;;;;;5.90;1.20;;;;;;;17.39;85.82;99957.45;110525;1267;22204;-55
2023/07/31 05:42:30;;;;;;;7.70;1.30;;;;;;;17.47;85.26;99959.61;110503;1272;23246;-55
2023/07/31 05:45:01;;;;;;;13.20;1.00;;;;;;;17.53;84.89;99955.39;110518;1272;22186;-58
2023/07/31 05:47:32;;;;;;;10.80;1.20;;;;;;;17.58;84.67;99957.52;110508;1273;22226;-57
2023/07/31 05:50:03;;;;;;;15.10;1.40;;;;;;;17.63;84.26;99952.77;110544;1272;22162;-57
2023/07/31 05:52:34;;;;;;;10.10;1.20;;;;;;;17.68;84.03;99953.96;110525;1268;22261;-57
2023/07/31 05:55:05;;;;;;;8.90;1.20;;;;;;;17.73;84.02;99951.76;110490;1273;22172;-58
2023/07/31 05:57:37;;;;;;;6.80;1.20;;;;;;;17.80;83.96;99954.90;110479;1272;22868;-58
2023/07/31 06:00:11;;;;;;;9.10;1.00;;;;;;;17.87;83.61;99951.00;110327;1272;22568;-59
2023/07/31 06:02:42;;;;;;;5.40;0.90;;;;;;;17.93;83.38;99953.37;110577;1272;22226;-58
2023/07/31 06:05:12;;;;;;;10.40;1.00;;;;;;;18.00;83.45;99952.80;110532;1273;22234;-53
2023/07/31 06:07:43;;;;;;;5.20;0.80;;;;;;;18.09;83.32;99953.89;110490;1272;22279;-58
2023/07/31 06:10:14;;;;;;;8.50;0.90;;;;;;;18.16;82.85;99953.27;110559;1272;22211;-56
2023/07/31 06:12:45;;;;;;;8.40;0.60;;;;;;;18.22;82.54;99955.73;110567;1266;22394;-56
2023/07/31 06:15:17;;;;;;;6.60;1.10;;;;;;;18.27;82.03;99955.70;110572;1272;22225;-59
2023/07/31 06:17:50;;;;;;;6.70;0.80;;;;;;;18.35;82.28;99954.79;110539;1264;22740;-58
2023/07/31 06:20:22;;;;;;;5.60;0.70;;;;;;;18.41;81.79;99955.14;110492;1273;22436;-58
2023/07/31 06:22:52;;;;;;;9.40;0.70;;;;;;;18.46;81.19;99953.29;110569;1272;22287;-57
2023/07/31 06:25:24;;;;;;;7.30;0.90;;;;;;;18.51;81.03;99953.56;110557;1272;22958;-55
2023/07/31 06:27:55;;;;;;;3.70;0.50;;;;;;;18.57;81.40;99953.46;110533;1273;22665;-56
2023/07/31 06:30:25;;;;;;;4.40;0.70;;;;;;;18.63;81.01;99949.14;110590;1265;22198;-58
2023/07/31 06:32:57;;;;;;;10.10;0.70;;;;;;;18.67;80.63;99952.00;110560;1270;22935;-54
2023/07/31 06:35:27;;;;;;;5.80;1.10;;;;;;;18.70;80.19;99951.67;110664;1272;22164;-56
2023/07/31 06:37:58;;;;;;;5.90;0.90;;;;;;;18.75;79.98;99946.74;110569;1267;22304;-57
2023/07/31 06:40:29;;;;;;;6.10;0.70;;;;;;;18.79;79.91;99942.56;110615;1272;22271;-57
2023/07/31 06:43:06;;;;;;;6.50;0.80;;;;;;;18.84;79.93;99944.23;110592;1272;22285;-57
2023/07/31 06:45:37;;;;;;;7.50;0.90;;;;;;;18.89;79.57;99941.85;110578;1272;22197;-56
2023/07/31 06:48:08;;;;;;;6.00;0.70;;;;;;;18.95;79.44;99940.81;110608;1272;22327;-56
2023/07/31 06:50:39;;;;;;;4.30;0.60;;;;;;;19.00;79.10;99942.01;110570;1272;22710;-55
2023/07/31 06:53:10;;;;;;;6.40;0.70;;;;;;;19.06;79.08;99949.52;110569;1272;22191;-56
2023/07/31 06:55:41;;;;;;;4.80;1.30;;;;;;;19.12;78.70;99947.45;110558;1273;22203;-56
2023/07/31 06:58:12;;;;;;;5.90;0.80;;;;;;;19.20;78.51;99952.84;110545;1272;22481;-55
2023/07/31 07:00:44;;;;;;;6.50;0.50;;;;;;;19.29;78.57;99950.66;110582;1266;22188;-56
2023/07/31 07:03:15;;;;;;;4.20;0.80;;;;;;;19.37;77.87;99950.98;110615;1266;22211;-57
2023/07/31 07:05:46;;;;;;;6.80;0.80;;;;;;;19.45;77.79;99951.41;110552;1273;22325;-58
2023/07/31 07:08:17;;;;;;;6.70;0.80;;;;;;;19.52;77.28;99947.61;110571;1272;23205;-57
2023/07/31 07:10:48;;;;;;;5.70;0.80;;;;;;;19.56;76.99;99948.04;110606;1272;22423;-56
2023/07/31 07:13:19;;;;;;;4.60;0.70;;;;;;;19.58;76.61;99948.20;110515;1273;22386;-58
2023/07/31 07:15:52;;;;;;;7.40;0.70;;;;;;;19.60;76.32;99946.73;110536;1273;22313;-57
2023/07/31 07:18:23;;;;;;;5.70;0.60;;;;;;;19.61;76.08;99942.48;110552;1268;23226;-57
2023/07/31 07:20:57;;;;;;;6.00;0.60;;;;;;;19.62;75.78;99941.58;110507;1272;22708;-57
2023/07/31 07:23:27;;;;;;;6.70;0.90;;;;;;;19.66;75.83;99938.45;110539;1272;22392;-56
2023/07/31 07:25:58;;;;;;;4.20;0.80;;;;;;;19.70;75.97;99935.26;110552;1272;22258;-54
2023/07/31 07:28:29;;;;;;;6.20;0.70;;;;;;;19.75;75.52;99935.65;110528;1268;22695;-58
2023/07/31 07:31:00;;;;;;;6.10;0.60;;;;;;;19.80;75.12;99926.48;110528;1268;22342;-55
2023/07/31 07:33:31;;;;;;;9.60;0.90;;;;;;;19.85;75.30;99926.71;110535;1266;22317;-55
2023/07/31 07:36:05;;;;;;;5.80;0.70;;;;;;;19.92;75.66;99925.22;110509;1265;23023;-58
2023/07/31 07:38:39;;;;;;;7.30;0.70;;;;;;;19.98;75.35;99920.85;110532;1271;22820;-57
2023/07/31 07:41:09;;;;;;;3.50;0.60;;;;;;;20.04;75.13;99920.04;110501;1269;22455;-56
2023/07/31 07:43:40;;;;;;;4.80;0.50;;;;;;;20.08;75.06;99915.77;110517;1270;23106;-56
2023/07/31 07:46:11;;;;;;;6.60;0.60;;;;;;;20.12;74.84;99912.45;110532;1268;22389;-56
2023/07/31 07:48:42;;;;;;;5.90;0.60;;;;;;;20.19;74.49;99914.66;110505;1271;22316;-57
2023/07/31 07:51:13;;;;;;;6.00;0.70;;;;;;;20.22;74.19;99912.70;110493;1273;22313;-56
2023/07/31 07:53:44;;;;;;;6.20;0.80;;;;;;;20.25;74.26;99914.59;110500;1271;22223;-57
2023/07/31 07:56:15;;;;;;;4.10;0.60;;;;;;;20.29;74.05;99914.80;110537;1266;22803;-55
2023/07/31 07:58:46;;;;;;;8.00;0.90;;;;;;;20.34;73.70;99914.89;110508;1267;23027;-57
2023/07/31 08:01:17;;;;;;;7.60;0.70;;;;;;;20.40;73.75;99913.22;110533;1267;22258;-55
2023/07/31 08:03:48;;;;;;;7.00;0.70;;;;;;;20.48;73.39;99911.00;110489;1273;22895;-58
2023/07/31 08:06:19;;;;;;;6.30;0.70;;;;;;;20.57;73.32;99913.55;110518;1266;22368;-56
2023/07/31 08:08:50;;;;;;;8.30;0.90;;;;;;;20.67;72.97;99908.52;110462;1273;22182;-56
2023/07/31 08:11:23;;;;;;;3.80;0.60;;;;;;;20.76;72.02;99909.17;110508;1271;22325;-55
2023/07/31 08:13:54;;;;;;;5.20;0.50;;;;;;;20.86;71.74;99908.70;110494;1273;22300;-59
2023/07/31 08:16:24;;;;;;;7.10;0.70;;;;;;;20.98;71.47;99906.02;110515;1268;23208;-56
2023/07/31 08:18:55;;;;;;;5.70;0.50;;;;;;;21.09;70.51;99900.99;110493;1273;22395;-54
2023/07/31 08:21:26;;;;;;;4.30;0.50;;;;;;;21.21;70.10;99898.89;110474;1271;22199;-56
2023/07/31 08:23:57;;;;;;;8.90;0.90;;;;;;;21.30;69.33;99893.25;110508;1268;22255;-57
2023/07/31 08:26:28;;;;;;;2.20;0.40;;;;;;;21.36;68.62;99899.04;110537;1272;22271;-56
2023/07/31 08:28:59;;;;;;;8.10;0.50;;;;;;;21.41;68.89;99902.64;110500;1273;22866;-58
2023/07/31 08:31:30;;;;;;;3.90;0.60;;;;;;;21.51;69.19;99911.57;110493;1268;22225;-57
2023/07/31 08:34:01;;;;;;;3.30;0.50;;;;;;;21.64;68.83;99914.04;110482;1266;22361;-57
2023/07/31 08:36:32;;;;;;;7.30;0.80;;;;;;;21.72;67.82;99918.61;110522;1272;22941;-57
2023/07/31 08:39:03;;;;;;;3.10;0.60;;;;;;;21.77;67.31;99917.80;110491;1268;23034;-59
2023/07/31 08:41:40;;;;;;;4.00;0.50;;;;;;;21.83;67.29;99915.02;110514;1269;23161;-55
2023/07/31 08:44:12;;;;;;;5.50;0.70;;;;;;;21.94;67.59;99913.79;110527;1271;22297;-58
2023/07/31 08:46:44;;;;;;;5.50;0.90;;;;;;;22.07;67.07;99913.93;110508;1273;22972;-58
2023/07/31 08:49:18;;;;;;;3.20;0.80;;;;;;;22.17;66.59;99908.26;110506;1273;22348;-57
2023/07/31 08:51:50;;;;;;;6.50;0.70;;;;;;;22.22;65.86;99905.26;110489;1268;22295;-57
2023/07/31 08:54:21;;;;;;;5.00;0.70;;;;;;;22.26;65.83;99905.70;110532;1271;22133;-56
2023/07/31 08:56:53;;;;;;;4.60;0.50;;;;;;;22.28;65.71;99905.22;110482;1268;22332;-57
2023/07/31 08:59:25;;;;;;;6.90;0.60;;;;;;;22.29;65.51;99905.38;110497;1273;22121;-56
2023/07/31 09:02:00;;;;;;;4.10;0.70;;;;;;;22.29;65.03;99904.57;110472;1273;22184;-56
2023/07/31 09:04:33;;;;;;;3.20;0.50;;;;;;;22.23;63.73;99906.78;110485;1265;22686;-59
2023/07/31 09:07:05;;;;;;;5.30;0.80;;;;;;;22.14;63.38;99904.05;110565;1266;22237;-58
2023/07/31 09:09:35;;;;;;;6.10;0.80;;;;;;;22.09;63.70;99903.40;110569;1269;22221;-55
2023/07/31 09:12:08;;;;;;;3.30;0.50;;;;;;;22.05;63.85;99905.61;110536;1272;23483;-58
2023/07/31 09:14:40;;;;;;;3.70;0.40;;;;;;;21.98;62.84;99912.33;110626;1268;22322;-58
2023/07/31 09:17:11;;;;;;;8.10;0.80;;;;;;;21.82;61.80;99915.27;110502;1268;22326;-58
2023/07/31 09:19:42;;;;;;;4.90;0.60;;;;;;;21.59;61.43;99916.63;110611;1272;22159;-56
2023/07/31 09:22:13;;;;;;;7.00;1.10;;;;;;;21.41;62.27;99912.79;110590;1269;22317;-58
2023/07/31 09:24:44;;;;;;;3.10;0.80;;;;;;;21.31;63.08;99906.77;110490;1267;22918;-58
2023/07/31 09:27:18;;;;;;;4.00;0.70;;;;;;;21.24;63.57;99904.58;110483;1265;22316;-58
2023/07/31 09:30:01;;;;;;;4.90;0.70;;;;;;;21.24;63.91;99907.69;110548;1266;22451;-59
2023/07/31 09:32:33;;;;;;;6.10;0.90;;;;;;;21.29;64.80;99912.70;110544;1265;22891;-57
2023/07/31 09:35:19;;;;;;;5.50;1.10;;;;;;;21.33;64.63;99911.27;110533;1266;22857;-55
2023/07/31 09:37:53;;;;;;;7.90;1.00;;;;;;;21.36;63.97;99915.42;110475;1268;22518;-55
2023/07/31 09:40:32;;;;;;;6.70;1.30;;;;;;;21.33;63.57;99918.40;110520;1273;22268;-55
2023/07/31 09:43:04;;;;;;;6.40;0.70;;;;;;;21.34;64.26;99919.05;110512;1271;22243;-59
2023/07/31 09:45:37;;;;;;;11.00;0.90;;;;;;;21.38;64.20;99917.55;110520;1274;22389;-57
2023/07/31 09:48:12;;;;;;;9.80;1.00;;;;;;;21.39;64.19;99922.83;110448;1273;22231;-57
2023/07/31 09:50:44;;;;;;;6.70;1.00;;;;;;;21.34;63.58;99925.67;110537;1273;22217;-58
2023/07/31 09:53:16;;;;;;;3.60;0.70;;;;;;;21.21;63.62;99928.98;110568;1273;22149;-57
2023/07/31 09:55:47;;;;;;;4.40;0.80;;;;;;;21.06;62.66;99932.95;110487;1273;22396;-58
2023/07/31 09:58:18;;;;;;;7.20;0.70;;;;;;;20.92;62.64;99930.20;110565;1273;22155;-56
2023/07/31 10:00:49;;;;;;;2.70;0.60;;;;;;;20.83;62.36;99929.73;110507;1273;22473;-58
2023/07/31 10:03:21;;;;;;;5.90;0.90;;;;;;;20.79;63.03;99931.56;110555;1273;22264;-55
2023/07/31 10:05:54;;;;;;;3.20;0.50;;;;;;;20.76;62.91;99929.67;110585;1273;22362;-55
2023/07/31 10:08:31;;;;;;;6.80;0.60;;;;;;;20.75;62.99;99929.30;110508;1273;22464;-55
2023/07/31 10:11:03;;;;;;;4.60;0.80;;;;;;;20.75;63.00;99921.70;110533;1273;22951;-58
2023/07/31 10:13:35;;;;;;;5.40;0.80;;;;;;;20.80;63.30;99917.45;110580;1270;22945;-55
2023/07/31 10:16:06;;;;;;;4.20;0.60;;;;;;;20.83;63.17;99915.09;110512;1266;22348;-59
2023/07/31 10:18:38;;;;;;;4.10;0.60;;;;;;;20.87;63.19;99911.21;110517;1273;22153;-55
2023/07/31 10:21:10;;;;;;;3.80;0.80;;;;;;;20.90;63.36;99911.65;110589;1273;22178;-55
2023/07/31 10:23:44;;;;;;;7.10;0.70;;;;;;;20.88;63.33;99906.59;110569;1270;22180;-60
2023/07/31 10:26:16;;;;;;;10.00;0.80;;;;;;;20.85;63.80;99907.20;110557;1273;22643;-56
2023/07/31 10:28:48;;;;;;;4.90;0.70;;;;;;;20.86;64.34;99907.20;110536;1273;22308;-58
2023/07/31 10:31:19;;;;;;;4.50;0.60;;;;;;;20.89;64.49;99903.20;110505;1271;22163;-59
2023/07/31 10:33:50;;;;;;;5.30;0.70;;;;;;;20.95;65.10;99902.14;110526;1270;22307;-55
2023/07/31 10:36:22;;;;;;;5.90;0.90;;;;;;;21.05;65.00;99901.11;110543;1273;22219;-55
2023/07/31 10:38:53;;;;;;;3.60;0.60;;;;;;;21.17;64.83;99899.30;110513;1273;23002;-58
2023/07/31 10:41:31;;;;;;;11.60;1.00;;;;;;;21.26;64.58;99902.36;110565;1273;22984;-58
2023/07/31 10:44:02;;;;;;;7.40;0.70;;;;;;;21.35;64.40;99897.50;110488;1273;22210;-56
2023/07/31 10:46:35;;;;;;;3.20;0.70;;;;;;;21.38;64.15;99899.42;110526;1274;22194;-56
2023/07/31 10:49:06;;;;;;;2.40;0.50;;;;;;;21.46;64.49;99894.48;110493;1273;23310;-58
2023/07/31 10:51:37;;;;;;;8.80;0.70;;;;;;;21.52;63.82;99894.02;110549;1273;22248;-55
2023/07/31 10:54:15;;;;;;;3.20;0.60;;;;;;;21.54;63.42;99894.62;110546;1270;22302;-58
2023/07/31 10:56:52;;;;;;;6.00;0.70;;;;;;;21.56;63.34;99895.65;110556;1273;22177;-57
2023/07/31 10:59:35;;;;;;;3.40;0.50;;;;;;;21.58;63.18;99882.73;110515;1270;22252;-58
2023/07/31 11:02:24;;;;;;;3.50;0.70;;;;;;;21.58;63.22;99887.77;110496;1273;22134;-57
2023/07/31 11:05:09;;;;;;;6.20;0.60;;;;;;;21.57;62.88;99889.21;110559;1262;22201;-58
2023/07/31 11:07:57;;;;;;;2.10;0.60;;;;;;;21.55;62.78;99883.91;110523;1273;22266;-60
2023/07/31 11:10:27;;;;;;;7.40;0.60;;;;;;;21.53;62.65;99884.95;110477;1273;22174;-56
2023/07/31 11:12:58;;;;;;;4.10;0.60;;;;;;;21.50;62.65;99881.58;110598;1273;23012;-58
2023/07/31 11:15:30;;;;;;;4.30;0.60;;;;;;;21.53;62.82;99878.36;110522;1273;22149;-59
2023/07/31 11:18:05;;;;;;;3.70;0.60;;;;;;;21.59;62.89;99874.56;110562;1266;22742;-59
2023/07/31 11:20:37;;;;;;;5.30;0.70;;;;;;;21.66;62.68;99871.92;110448;1274;23419;-56
2023/07/31 11:23:10;;;;;;;3.80;0.70;;;;;;;21.77;62.62;99871.64;110492;1273;22242;-57
2023/07/31 11:25:41;;;;;;;3.80;0.40;;;;;;;21.88;62.28;99870.97;110583;1273;22152;-57
2023/07/31 11:28:13;;;;;;;5.70;0.90;;;;;;;21.96;61.78;99869.09;110486;1273;22200;-57
2023/07/31 11:30:46;;;;;;;4.40;0.70;;;;;;;22.01;61.19;99866.73;110564;1273;22198;-59
2023/07/31 11:33:17;;;;;;;5.20;0.60;;;;;;;22.05;60.92;99865.40;110565;1273;22205;-58
2023/07/31 11:35:49;;;;;;;2.40;0.50;;;;;;;22.10;61.19;99862.02;110563;1273;22315;-56
2023/07/31 11:38:25;;;;;;;5.40;0.60;;;;;;;22.18;61.21;99853.50;110496;1273;22265;-56
2023/07/31 11:40:58;;;;;;;4.10;0.70;;;;;;;22.28;61.09;99854.64;110554;1265;22313;-58
2023/07/31 11:43:29;;;;;;;5.10;0.70;;;;;;;22.37;60.90;99844.65;110479;1273;22265;-56
2023/07/31 11:46:02;;;;;;;2.50;0.70;;;;;;;22.50;60.74;99844.14;110547;1273;22718;-57